Aviation Digital Data Service (ADDS)

Output produced by METARs form (1304 UTC 15 November 2018)
found at http://www.aviationweather.gov/metar/data/
 
TAF MMCS 150452Z 1506/1606 13005KT P6SM BKN200 
     FM151700 13010KT P6SM BKN250 
     FM160200 12005KT P6SM SCT250
       
TAF MMBT 150431Z 1506/1606 27005KT P6SM SCT100 
     FM151800 22008KT P6SM SCT020 
     BECMG 1603/1605 01005KT SKC
       
TAF MMVA 150530Z 1506/1606 22005KT 3SM -DZ BR SCT005 OVC008 
     TEMPO 1511/1515 1/2SM DZ FG VV002 
     FM151600 36012KT 5SM -RA HZ BKN015 OVC070 
     BECMG 1601/1603 6SM -RA
       
TAF MMUN 151117Z 1512/1618 33010KT P6SM SCT015 BKN070 TX30/1518Z TN21/1512Z 
     TEMPO 1512/1516 BKN015 
     FM151600 36012KT P6SM BKN015 BKN070 
     TEMPO 1516/1520 5SM RA 
     FM160200 36008KT P6SM SCT015 BKN070 
     FM161600 36010KT P6SM SCT015 SCT080
       
TAF MMCM 150530Z 1506/1606 35012KT P6SM OVC006 
     TEMPO 1510/1514 3SM -RA 
     FM151800 34015KT 5SM -RA BKN015 OVC070 
     FM160200 33005KT 6SM HZ SCT015 BKN070
       
TAF MMCE 150530Z 1506/1606 32013G23KT 1SM RA BR BKN006 OVC010 
     FM151100 36012KT 3SM -RA BR OVC015 
     FM151900 36015KT 5SM -RA BKN020 OVC070
       
TAF MMCN 150504Z 1506/1606 00000KT P6SM SCT200 
     FM151800 26008KT P6SM BKN200 
     BECMG 1603/1605 34004KT SCT220
       
TAF MMCV 150547Z 1506/1606 18004KT P6SM SKC 
     FM151100 16005KT 6SM HZ SCT015 
     TEMPO 1512/1515 3SM BR BKN015 
     FM151800 36010KT 6SM HZ SCT020 SCT080 
     BECMG 1603/1605 00000KT
       
TAF MMCZ 151117Z 1512/1618 36012G26KT P6SM SCT015 
     FM151200 36015KT P6SM BKN015 
     TEMPO 1512/1516 BKN015 
     FM151600 36010KT P6SM SCT015 BKN080 
     TEMPO 1518/1522 5SM RA BKN015 
     FM160200 36008KT P6SM SCT015 BKN080 
     FM161600 36012KT P6SM SCT015
       
TAF MMCB 150431Z 1506/1606 00000KT 5SM HZ BKN004 BKN100 
     TEMPO 1511/1515 1/2SM FG OVC003 
     FM151800 20008KT 6SM HZ BKN010 BKN080 
     BECMG 1602/1604 06005KT SCT015
       
TAF MMCL 150422Z 1506/1606 00000KT P6SM BKN250 
     FM152000 24010KT P6SM SCT250 
     FM160200 00000KT P6SM SCT250
       
TAF MMLO 150448Z 1506/1606 04009KT P6SM SKC 
     FM151000 03006KT P6SM SCT015 
     FM151800 20008KT P6SM SCT025 SCT250 
     TEMPO 1521/1601 BKN025 
     FM160500 16005KT P6SM SCT240
       
TAF MMAN 150452Z 1506/1606 00000KT P6SM SKC 
     FM151800 12010KT P6SM SKC 
     FM160200 13005KT P6SM SKC
       
TAF MMGL 151058Z 1512/1618 00000KT P6SM SCT020 TX24/1521Z TN05/1512Z 
     FM151800 30010KT P6SM SKC 
     FM160200 08005KT P6SM SCT020 
     FM161600 20010KT P6SM SKC
       
TAF MMDO 150504Z 1506/1606 33005KT P6SM SKC 
     FM151800 15008KT P6SM SKC 
     BECMG 1603/1605 06004KT
       
TAF MMTG 150512Z 1506/1606 33008KT P6SM SCT020 BKN080 
     FM151600 33012KT P6SM SCT020 BKN080 
     FM160200 33005KT P6SM SCT020 SCT080
       
TAF MMTJ 151044Z 1512/1618 08005KT 6SM HZ SCT250 TX27/1521Z TN15/1512Z 
     FM151600 08012KT P6SM BKN250 
     FM160300 08005KT P6SM BKN250 
     FM161600 30010KT P6SM SKC
       
TAF MMMM 151058Z 1512/1618 00000KT 5SM BR SCT010 
     TEMPO 1512/1514 3SM BR HZ SCT010 
     FM151600 08005KT P6SM SKC 
     FM152100 13010KT P6SM SKC 
     FM160200 00000KT P6SM SKC 
     FM161600 13008KT P6SM SKC
       
TAF MMTM 150525Z 1506/1606 22005KT P6SM SKC 
     FM151600 33010KT P6SM SKC 
     FM152200 13010KT P6SM SKC 
     FM160300 13005KT P6SM SCT015
       
TAF MMVR 150525Z 1506/1606 33008KT P6SM SCT015 BKN070 TX25/1521Z TN12/1512Z 
     TEMPO 1510/1514 5SM RA BKN015 
     FM151600 03012KT P6SM SCT020 BKN070 
     FM160300 02005KT P6SM SCT020 SCT070
       
TAF MMHO 150422Z 1506/1606 30005KT P6SM SCT080 BKN200 
     FM151700 06010KT P6SM SCT250 
     FM160200 30005KT P6SM BKN250
       
TAF MMGM 150504Z 1506/1606 00000KT 5SM HZ BKN140 
     FM151800 23010KT P6SM SCT120 SCT220 
     BECMG 1602/1604 34005KT
       
TAF MMAA 151123Z 1512/1618 03005KT 5SM HZ SCT300 TX30/1520Z TN23/1512Z 
     FM151600 23010KT P6SM SCT015 
     FM160200 03005KT P6SM SCT300 
     FM161600 23010KT P6SM SCT300
       
TAF MMZC 151058Z 1512/1618 16005KT P6SM SKC TX18/1521Z TNM02/1512Z 
     FM151600 18010KT P6SM SKC 
     FM160200 20005KT P6SM SKC 
     FM161600 20010KT P6SM SKC
       
TAF MMRX 150547Z 1506/1606 00000KT P6SM SKC 
     FM151800 13008KT P6SM SCT025 
     BECMG 1603/1605 20006KT SKC
       
TAF MMLP 150422Z 1506/1606 36005KT P6SM SCT250 
     FM151800 36012KT P6SM SCT250 
     FM160200 18005KT P6SM SCT250
       
TAF MMMY 151048Z 1512/1618 30005KT P6SM SCT250 TX21/1521Z TN00/1512Z 
     FM151600 13008KT P6SM BKN250 
     FM160200 13005KT P6SM SCT250 
     FM161600 12010KT P6SM SKC
       
TAF MMCU 150452Z 1506/1606 13005KT P6SM BKN250 
     FM151600 16010KT P6SM BKN250 
     FM160200 16005KT P6SM SCT250
       
TAF MMMZ 151044Z 1512/1618 02005KT P6SM SCT250 TX31/1520Z TN13/1512Z 
     FM151600 23010KT P6SM SKC 
     FM160300 02005KT P6SM SCT250 
     FM161600 23010KT P6SM SCT250
       
TAF MMML 150422Z 1506/1606 30005KT P6SM SCT250 
     FM151800 30010KT P6SM SCT250 
     FM160200 30005KT P6SM BKN250
       
TAF MMMA 150547Z 1506/1606 04004KT 6SM HZ SKC 
     FM151800 35012KT P6SM SCT080 
     BECMG 1603/1605 00000KT
       
TAF MMPB 150431Z 1506/1606 33008KT P6SM SCT100 
     FM151100 00000KT 6SM HZ SCT010 BKN090 
     TEMPO 1510/1514 3SM BR BKN010 
     FM151800 03008KT P6SM SCT020 SCT090 
     BECMG 1603/1605 35005KT
       
TAF MMCP 150530Z 1506/1606 36008KT P6SM SCT025 OVC070 
     TEMPO 1507/1511 5SM -RA BKN020 OVC060 
     FM151800 35010KT P6SM SCT020 BKN070 
     BECMG 1603/1605 03005KT
       
TAF AMD MMQT 151248Z 1513/1606 13005KT 1/2SM FG BKN008 
     FM151500 03006KT 3SM BR SCT015 
     FM151800 08010KT P6SM SCT020 
     BECMG 1603/1605 04005KT
       
TAF MMZH 150431Z 1506/1606 00000KT P6SM SKC 
     FM151800 24008KT P6SM SCT020 SCT080 
     TEMPO 1522/1602 BKN080 
     FM160500 28005KT P6SM SKC
       
TAF MMAS 150448Z 1506/1606 05006KT P6SM SKC 
     FM151800 15010KT P6SM SCT030 
     TEMPO 1521/1601 BKN030 
     FM160500 16005KT P6SM SKC
       
TAF MMTO 151123Z 1512/1618 00000KT 1/2SM FG VV002 TX15/1521Z TN02/1512Z 
     FM151430 08005KT 2SM BR HZ SCT010 
     FM151530 08005KT 5SM SCT020 
     FM151900 13010KT P6SM SCT020 SCT080 
     FM160200 00000KT 5SM HZ SCT015 
     FM160900 00000KT 2SM BR HZ SCT010 
     TEMPO 1610/1614 1/2SM FG VV005 
     FM161500 12005KT P6SM SKC
       
TAF MMMX 151123Z 1512/1618 36005KT 4SM HZ SCT010 OVC015 TX17/1521Z TN07/1512Z 
     TEMPO 1512/1514 2SM BR BKN010 
     FM151500 03005KT P6SM SCT020 
     FM152100 08010KT P6SM SCT020 
     FM160200 08005KT 5SM HZ SCT020 
     TEMPO 1610/1614 1/2SM FG VV005 
     FM161500 12005KT 6SM HZ SCT020
       
TAF MMPR 151058Z 1512/1618 02005KT P6SM SKC TX31/1519Z TN17/1512Z 
     FM151600 22010KT P6SM SKC 
     FM160200 03005KT P6SM SKC 
     FM161700 20010KT P6SM SKC
       
TAF MMMD 151117Z 1512/1618 35005KT 5SM HZ OVC020 TX25/1522Z TN15/1512Z 
     FM151600 36010KT P6SM BKN020 
     FM160100 36005KT P6SM SCT020 
     FM161600 36010KT P6SM BKN020
       
TAF MMPN 150448Z 1506/1606 00000KT 6SM HZ SKC 
     FM151800 22008KT P6SM SCT025 
     TEMPO 1521/1601 BKN025 
     FM160500 20005KT P6SM SCT020 SCT090
       
TAF MMLT 150504Z 1506/1606 00000KT P6SM BKN240 
     FM151800 04010KT P6SM SCT090 BKN250 
     BECMG 1602/1604 32004KT
       
TAF MMSD 150504Z 1506/1606 27008KT 6SM HZ SKC 
     FM151100 02006KT P6SM SKC 
     FM151800 34010KT P6SM SKC 
     BECMG 1603/1605 36008KT
       
TAF MMMT 150530Z 1506/1606 36020G30KT 6SM -RA OVC030 
     TEMPO 1510/1514 3SM RA 
     FM151800 36018KT 5SM -RA BKN020 OVC070 
     PROB40 1522/1602 4SM RA
       
TAF MMPG 150547Z 1506/1606 00000KT P6SM SKC 
     FM151100 28005KT 6SM HZ SCT015 
     FM151800 25008KT P6SM SKC 
     BECMG 1602/1604 14004KT
       
TAF MMIO 150452Z 1506/1606 00000KT P6SM SKC 
     FM151800 36008KT P6SM SKC 
     FM160200 36005KT P6SM SKC
       
TAF MMZO 150442Z 1506/1606 03005KT P6SM SKC 
     FM151700 22010KT P6SM SCT020 
     FM160300 02005KT P6SM SKC
       
TAF MMSP 151058Z 1512/1618 06005KT P6SM SCT250 TX17/1521Z TN03/1512Z 
     FM151800 13010KT P6SM SKC 
     FM160200 13005KT P6SM SKC 
     FM161700 13010KT P6SM SKC
       
TAF MMPS 150431Z 1506/1606 03007KT 6SM HZ SCT250 
     FM151800 22008KT P6SM SCT015 SCT240 
     BECMG 1603/1605 02005KT
       
TAF MMNL 150547Z 1506/1606 00000KT P6SM SKC 
     FM151800 14008KT P6SM SKC 
     BECMG 1603/1605 12010KT
       
TAF MMTP 151117Z 1512/1618 00000KT P6SM SKC 
     FM151800 24010KT P6SM SCT020 
     FM160100 00000KT P6SM SKC 
     FM161700 24010KT P6SM SCT030
       
TAF COR MMEP 151258Z 1506/1606 09004KT 6SM HZ SKC 
     FM151800 20010KT P6SM SKC 
     BECMG 1604/1606 10005KT
       
TAF MMTC 150452Z 1506/1606 00000KT P6SM SKC 
     FM151800 06010KT P6SM SKC 
     FM160200 08005KT P6SM SKC
       
TAF MMLM 150504Z 1506/1606 33005KT P6SM SKC 
     FM151800 26010KT P6SM SCT240 
     BECMG 1603/1605 02004KT
       
TAF MMOX 150431Z 1506/1606 25004KT P6SM BKN020 OVC080 
     FM151000 00000KT 6SM HZ SCT020 BKN080 
     FM151800 02008KT P6SM SCT025 BKN090 
     BECMG 1603/1605 34005KT